Time;durP1;ratioP1;P1;durP2;ratioP2;P2;SDS_P1;SDS_P2;PMS_P1;PMS_P2;Temp;Humidity;BMP_temperature;BMP_pressure;BME280_temperature;BME280_humidity;BME280_pressure;Samples;Min_cycle;Max_cycle;Signal;HPM_P1;HPM_P2
2021/12/07 00:02:02;;;;;;;43.20;24.48;;;;;;;15.62;40.06;92682.44;4984053;28;20464;-91
2021/12/07 00:04:27;;;;;;;42.15;25.45;;;;;;;15.59;40.24;92675.31;4947458;28;20043;-91
2021/12/07 00:06:53;;;;;;;44.55;24.52;;;;;;;15.59;39.92;92664.41;4954533;28;20053;-92
2021/12/07 00:09:18;;;;;;;43.80;24.73;;;;;;;15.58;40.31;92663.69;4955079;28;20092;-91
2021/12/07 00:11:45;;;;;;;41.97;24.92;;;;;;;15.62;40.21;92675.00;4955090;28;20057;-91
2021/12/07 00:14:15;;;;;;;45.28;25.58;;;;;;;15.58;40.33;92674.56;4937419;28;20049;-90
2021/12/07 00:16:41;;;;;;;39.42;23.63;;;;;;;15.59;40.39;92675.31;4948079;28;20039;-91
2021/12/07 00:19:07;;;;;;;40.47;22.80;;;;;;;15.64;40.07;92674.50;4936536;28;20066;-91
2021/12/07 00:21:32;;;;;;;39.55;22.55;;;;;;;15.58;40.42;92671.84;4936473;28;20139;-91
2021/12/07 00:23:58;;;;;;;42.65;22.63;;;;;;;15.58;40.32;92680.03;4935187;29;20039;-91
2021/12/07 00:26:23;;;;;;;37.95;22.10;;;;;;;15.56;40.25;92681.78;4966326;28;20542;-90
2021/12/07 00:28:50;;;;;;;37.75;21.40;;;;;;;15.60;40.17;92684.94;4916955;29;20146;-91
2021/12/07 00:31:27;;;;;;;40.30;22.00;;;;;;;15.56;40.36;92690.69;4930448;28;20049;-91
2021/12/07 00:34:08;;;;;;;37.92;21.48;;;;;;;15.58;40.15;92690.91;4952422;28;20458;-90
2021/12/07 00:36:37;;;;;;;37.08;21.25;;;;;;;15.60;40.18;92688.41;4957188;28;20125;-91
2021/12/07 00:39:04;;;;;;;37.83;21.27;;;;;;;15.59;40.08;92686.22;4951094;28;20049;-90
2021/12/07 00:41:29;;;;;;;34.38;21.17;;;;;;;15.57;40.02;92677.81;4939401;28;20057;-91
2021/12/07 00:43:56;;;;;;;38.13;20.90;;;;;;;15.57;40.18;92681.28;4939305;28;20492;-90
2021/12/07 00:46:23;;;;;;;35.42;20.65;;;;;;;15.60;40.14;92677.50;4940314;28;21366;-91
2021/12/07 00:48:49;;;;;;;34.20;20.25;;;;;;;15.56;40.12;92668.91;4971297;28;20080;-91
2021/12/07 00:51:14;;;;;;;32.92;20.77;;;;;;;15.55;40.20;92672.84;4953864;28;20042;-91
2021/12/07 00:53:39;;;;;;;31.95;18.55;;;;;;;15.60;40.23;92671.31;4938760;28;20069;-92
2021/12/07 00:56:05;;;;;;;36.90;20.20;;;;;;;15.61;40.10;92665.34;4954729;28;20038;-90
2021/12/07 00:58:31;;;;;;;33.88;19.92;;;;;;;15.57;40.19;92667.66;4938660;28;20061;-91
2021/12/07 01:01:01;;;;;;;34.83;19.08;;;;;;;15.55;40.27;92656.50;4936885;28;20466;-91
2021/12/07 01:03:27;;;;;;;31.60;19.45;;;;;;;15.58;40.32;92654.78;4970988;28;20044;-91
2021/12/07 01:06:03;;;;;;;31.23;19.60;;;;;;;15.61;40.48;92651.00;4957112;28;20039;-90
2021/12/07 01:08:56;;;;;;;31.42;18.40;;;;;;;15.59;39.96;92654.22;4961019;28;20090;-91
2021/12/07 01:25:07;;;;;;;28.23;16.92;;;;;;;15.53;40.44;92629.03;4972859;28;20077;-91
2021/12/07 01:27:33;;;;;;;26.42;16.73;;;;;;;15.54;40.30;92629.75;4946969;28;20512;-91
2021/12/07 01:30:09;;;;;;;30.75;17.52;;;;;;;15.54;40.27;92621.59;4941178;28;20416;-91
2021/12/07 01:32:58;;;;;;;29.45;17.83;;;;;;;15.56;40.57;92627.28;4976713;28;20035;-91
2021/12/07 01:40:37;;;;;;;28.67;17.47;;;;;;;15.50;40.40;92624.59;4991172;28;20012;-91
2021/12/07 01:59:33;;;;;;;26.25;15.30;;;;;;;15.50;40.16;92635.50;4957720;28;20045;-91
2021/12/07 02:01:58;;;;;;;25.30;15.88;;;;;;;15.48;40.55;92635.25;4950816;28;20039;-90
2021/12/07 02:04:24;;;;;;;25.58;15.02;;;;;;;15.47;40.34;92631.06;4951727;28;20038;-91
2021/12/07 02:06:49;;;;;;;22.15;14.30;;;;;;;15.49;40.29;92631.28;4922054;28;20086;-90
2021/12/07 02:09:14;;;;;;;23.50;14.25;;;;;;;15.50;40.47;92621.13;4958396;28;20043;-90
2021/12/07 02:11:46;;;;;;;23.88;14.15;;;;;;;15.52;40.36;92618.63;4951989;28;20492;-91
2021/12/07 02:14:17;;;;;;;23.05;14.65;;;;;;;15.52;40.83;92624.09;4983305;28;20047;-91
2021/12/07 02:16:47;;;;;;;26.42;15.98;;;;;;;15.53;40.21;92601.78;4943150;28;20674;-90
2021/12/07 02:19:15;;;;;;;26.55;15.13;;;;;;;15.53;40.40;92607.22;4983770;28;20056;-90
2021/12/07 02:21:44;;;;;;;21.38;12.93;;;;;;;15.51;40.50;92604.28;4962451;28;20089;-90
2021/12/07 02:24:09;;;;;;;25.60;15.55;;;;;;;15.47;40.50;92603.81;4989531;28;20394;-90
2021/12/07 02:26:35;;;;;;;21.30;13.60;;;;;;;15.48;40.38;92604.56;4939669;28;20090;-90
2021/12/07 02:29:01;;;;;;;23.45;13.43;;;;;;;15.49;40.49;92606.78;4939071;28;20035;-90
2021/12/07 02:31:26;;;;;;;20.65;13.20;;;;;;;15.52;40.39;92608.47;4937736;28;20034;-90
2021/12/07 02:33:51;;;;;;;21.40;13.68;;;;;;;15.53;40.20;92603.78;4939635;28;20023;-90
2021/12/07 02:36:17;;;;;;;19.30;13.10;;;;;;;15.51;40.49;92604.28;4928432;28;20047;-91
2021/12/07 02:38:42;;;;;;;23.00;14.27;;;;;;;15.52;40.13;92607.75;4909576;29;20035;-90
2021/12/07 02:41:08;;;;;;;22.73;13.25;;;;;;;15.48;40.09;92608.03;4915452;28;20047;-90
2021/12/07 02:43:33;;;;;;;22.27;13.15;;;;;;;15.46;40.21;92612.50;4918645;29;20047;-90
2021/12/07 02:45:59;;;;;;;27.13;14.90;;;;;;;15.50;40.43;92600.09;4953322;28;20122;-91
2021/12/07 02:48:24;;;;;;;20.30;13.00;;;;;;;15.51;40.48;92607.00;4918017;28;20430;-90
2021/12/07 02:50:50;;;;;;;19.60;11.75;;;;;;;15.50;39.99;92607.50;4909743;29;20066;-91
2021/12/07 02:53:21;;;;;;;22.33;14.10;;;;;;;15.49;40.56;92601.31;4910763;28;20086;-90
2021/12/07 02:55:47;;;;;;;20.52;13.70;;;;;;;15.48;40.02;92610.00;4903691;29;20066;-91
2021/12/07 02:58:12;;;;;;;17.85;11.40;;;;;;;15.47;40.51;92600.34;4911756;28;20045;-90
2021/12/07 03:00:51;;;;;;;19.50;11.45;;;;;;;15.50;40.28;92610.25;4961705;28;20035;-91
2021/12/07 03:03:17;;;;;;;15.30;10.43;;;;;;;15.53;40.32;92611.94;4935008;29;20047;-90
2021/12/07 03:05:57;;;;;;;16.75;10.93;;;;;;;15.51;40.52;92607.00;4950409;28;20043;-91
2021/12/07 03:27:28;;;;;;;22.52;13.88;;;;;;;15.50;40.66;92621.88;4974478;28;20049;-90
2021/12/07 03:29:54;;;;;;;15.82;9.60;;;;;;;15.44;40.51;92619.19;4987145;28;20035;-90
2021/12/07 03:32:19;;;;;;;17.35;11.05;;;;;;;15.49;40.60;92608.75;4970525;28;20050;-91
2021/12/07 03:34:44;;;;;;;15.15;9.68;;;;;;;15.51;40.45;92615.19;4972090;28;20038;-91
2021/12/07 03:37:10;;;;;;;16.85;11.77;;;;;;;15.53;40.12;92614.66;4969834;28;20081;-90
2021/12/07 03:39:35;;;;;;;15.15;10.80;;;;;;;15.50;40.10;92619.16;4988077;28;20073;-91
2021/12/07 03:42:01;;;;;;;16.02;10.63;;;;;;;15.46;40.39;92620.66;4987262;28;20041;-90
2021/12/07 03:44:26;;;;;;;15.23;9.10;;;;;;;15.51;40.58;92620.63;4986797;28;20038;-90
2021/12/07 03:46:51;;;;;;;16.88;10.05;;;;;;;15.48;40.40;92624.38;4966927;28;20535;-90
2021/12/07 03:49:17;;;;;;;16.80;11.88;;;;;;;15.49;40.48;92620.41;4952940;28;20038;-91
2021/12/07 03:51:42;;;;;;;17.13;10.02;;;;;;;15.46;40.77;92620.66;4939208;28;20106;-90
2021/12/07 03:54:08;;;;;;;16.55;9.63;;;;;;;15.44;40.45;92613.00;4938446;28;20496;-91
2021/12/07 03:56:33;;;;;;;19.00;11.05;;;;;;;15.42;40.21;92616.25;4973153;28;20046;-90
2021/12/07 03:58:58;;;;;;;17.77;10.18;;;;;;;15.44;40.87;92610.28;5000594;28;20077;-90
2021/12/07 04:01:24;;;;;;;15.13;8.95;;;;;;;15.45;40.31;92606.31;4935043;28;20061;-90
2021/12/07 04:03:50;;;;;;;16.05;10.05;;;;;;;15.46;40.11;92609.78;4936363;28;20042;-91
2021/12/07 04:06:15;;;;;;;13.55;9.63;;;;;;;15.46;40.24;92607.06;4936017;28;20039;-90
2021/12/07 04:08:42;;;;;;;18.30;11.68;;;;;;;15.43;40.67;92611.53;4937582;28;20043;-91
2021/12/07 04:11:07;;;;;;;15.07;8.85;;;;;;;15.52;40.28;92616.66;4935332;28;20528;-91
2021/12/07 04:13:32;;;;;;;13.43;8.57;;;;;;;15.53;40.43;92614.66;4937235;28;20038;-91
2021/12/07 04:15:59;;;;;;;15.60;9.80;;;;;;;15.51;40.23;92619.88;4965654;28;20409;-91
2021/12/07 04:18:25;;;;;;;19.83;11.00;;;;;;;15.55;40.30;92617.63;4919066;28;20039;-90
2021/12/07 04:20:51;;;;;;;12.57;8.63;;;;;;;15.50;40.40;92613.69;4919772;28;20090;-90
2021/12/07 04:23:16;;;;;;;16.00;11.38;;;;;;;15.47;40.49;92617.44;4935518;28;20043;-90
2021/12/07 04:25:42;;;;;;;12.27;8.13;;;;;;;15.46;40.32;92615.22;4937059;28;20404;-91
2021/12/07 04:28:07;;;;;;;15.80;10.73;;;;;;;15.45;40.35;92619.94;4951812;28;20050;-90
2021/12/07 04:30:36;;;;;;;12.20;8.55;;;;;;;15.44;40.36;92619.19;4936408;28;20114;-91
2021/12/07 04:33:01;;;;;;;18.42;11.57;;;;;;;15.44;40.56;92618.47;4969942;28;20031;-90
2021/12/07 04:35:27;;;;;;;12.15;7.82;;;;;;;15.42;40.65;92608.06;4954292;28;20121;-91
2021/12/07 04:37:52;;;;;;;15.68;8.93;;;;;;;15.48;40.54;92621.63;4972199;28;20416;-90
2021/12/07 04:40:28;;;;;;;14.93;9.45;;;;;;;15.63;40.09;92621.25;4968104;28;20813;-89
2021/12/07 04:42:53;;;;;;;17.13;8.35;;;;;;;15.60;40.79;92620.28;4957478;28;20037;-91
2021/12/07 04:58:39;;;;;;;13.18;8.80;;;;;;;15.52;40.52;92605.03;4990696;28;20065;-86
2021/12/07 05:01:09;;;;;;;13.57;9.45;;;;;;;15.53;40.53;92607.22;4973367;28;20046;-88
2021/12/07 05:03:36;;;;;;;15.10;10.15;;;;;;;15.52;40.49;92596.84;4960062;28;20035;-86
2021/12/07 05:06:02;;;;;;;12.18;9.05;;;;;;;15.57;40.44;92601.53;4958830;28;20034;-90
2021/12/07 05:08:38;;;;;;;15.35;9.90;;;;;;;15.55;40.19;92595.81;4958428;28;20045;-88
2021/12/07 05:13:36;;;;;;;19.30;11.60;;;;;;;15.54;40.31;92607.97;4974748;28;20582;-87
2021/12/07 05:16:24;;;;;;;18.73;11.60;;;;;;;15.60;40.01;92605.94;4952951;28;20039;-90
2021/12/07 05:24:11;;;;;;;16.55;11.57;;;;;;;15.48;41.01;92604.56;4958401;28;20045;-89
2021/12/07 05:37:40;;;;;;;;;;;;;;;;;;;;;
2021/12/07 05:39:56;;;;;;;19.05;13.60;;;;;;;15.74;40.55;92588.47;4966596;28;20090;-88
2021/12/07 05:42:23;;;;;;;21.60;15.45;;;;;;;15.82;40.36;92604.94;4973757;28;21058;-90
2021/12/07 05:44:51;;;;;;;19.83;13.43;;;;;;;15.88;40.53;92598.19;4976261;28;20129;-89
2021/12/07 05:47:17;;;;;;;22.15;15.73;;;;;;;15.80;39.98;92600.03;4970946;28;20044;-93
2021/12/07 05:49:42;;;;;;;41.05;17.08;;;;;;;15.82;40.67;92602.97;4956302;28;20034;-90
2021/12/07 05:52:08;;;;;;;32.00;16.15;;;;;;;15.76;40.00;92599.59;4993850;28;20034;-91
2021/12/07 05:54:33;;;;;;;37.90;23.05;;;;;;;15.67;38.07;92602.66;4975587;28;20042;-89
2021/12/07 05:56:59;;;;;;;67.07;30.05;;;;;;;15.56;35.92;92605.50;4971926;28;20068;-92
2021/12/07 05:59:26;;;;;;;65.22;28.63;;;;;;;15.43;34.37;92606.09;5013100;28;20065;-91
2021/12/07 06:01:51;;;;;;;85.43;35.78;;;;;;;15.17;33.25;92598.41;4977730;28;20034;-91
2021/12/07 06:04:17;;;;;;;67.05;33.33;;;;;;;15.13;33.34;92599.97;4988351;28;20101;-91
2021/12/07 06:06:43;;;;;;;95.75;39.47;;;;;;;15.13;33.42;92594.50;4968066;28;20720;-88
2021/12/07 06:09:08;;;;;;;112.40;40.47;;;;;;;15.19;33.57;92592.47;4982901;28;20047;-87
2021/12/07 06:11:33;;;;;;;118.03;51.67;;;;;;;15.27;34.43;92588.69;4982886;28;20039;-89
2021/12/07 06:13:59;;;;;;;123.97;50.28;;;;;;;15.26;34.75;92589.91;4973310;28;20495;-86
2021/12/07 06:16:29;;;;;;;233.93;73.85;;;;;;;15.32;35.34;92590.59;4972298;28;20046;-87
2021/12/07 06:18:55;;;;;;;181.93;65.50;;;;;;;15.28;35.94;92584.69;4971520;28;20043;-91
2021/12/07 06:21:21;;;;;;;223.40;73.80;;;;;;;15.32;36.56;92595.31;4985562;28;20101;-87
2021/12/07 06:23:46;;;;;;;132.48;57.72;;;;;;;15.47;37.25;92603.81;4974383;28;20043;-90
2021/12/07 06:26:12;;;;;;;152.77;66.65;;;;;;;15.46;37.29;92593.44;4938542;28;20043;-89
2021/12/07 06:28:37;;;;;;;161.18;68.40;;;;;;;15.42;37.15;92599.16;4960665;28;20035;-89
2021/12/07 06:31:03;;;;;;;151.65;69.18;;;;;;;15.41;37.16;92608.56;4956462;28;20034;-89
2021/12/07 06:33:40;;;;;;;160.27;81.15;;;;;;;15.46;37.24;92602.34;4961381;28;20048;-90
2021/12/07 06:36:07;;;;;;;161.50;76.72;;;;;;;15.44;37.56;92602.84;4970927;28;20063;-87
2021/12/07 06:38:33;;;;;;;163.75;76.20;;;;;;;15.52;37.63;92611.19;4964650;28;20034;-89
2021/12/07 06:40:59;;;;;;;160.38;81.10;;;;;;;15.56;37.21;92602.78;4977285;28;20049;-90
2021/12/07 06:43:27;;;;;;;157.27;78.78;;;;;;;15.48;37.12;92612.72;4974346;28;20070;-92
2021/12/07 06:45:55;;;;;;;154.07;81.28;;;;;;;15.46;36.88;92612.50;4943156;28;20039;-92
2021/12/07 06:48:23;;;;;;;165.35;74.55;;;;;;;15.52;37.72;92611.19;4972471;28;20087;-91
2021/12/07 06:50:49;;;;;;;168.27;74.15;;;;;;;15.45;36.55;92611.75;5000222;28;20027;-89
2021/12/07 06:53:14;;;;;;;164.23;73.43;;;;;;;15.55;36.84;92614.91;4990247;28;20046;-88
2021/12/07 06:55:39;;;;;;;179.20;77.50;;;;;;;15.62;37.32;92614.34;4939020;28;20348;-87
2021/12/07 06:58:08;;;;;;;177.18;74.22;;;;;;;15.66;37.48;92617.53;4985353;28;20097;-90
2021/12/07 07:00:37;;;;;;;155.52;74.63;;;;;;;15.63;37.27;92627.44;4933540;29;20537;-91
2021/12/07 07:03:08;;;;;;;173.60;89.20;;;;;;;15.65;37.30;92624.94;4969956;28;20067;-93
2021/12/07 07:05:40;;;;;;;;;;;;;;;15.63;37.75;92624.72;4949886;29;20176;-93
2021/12/07 07:08:10;;;;;;;160.02;74.82;;;;;;;15.81;38.07;92615.09;4945601;28;20373;-92
2021/12/07 07:10:36;;;;;;;181.70;95.82;;;;;;;15.89;37.88;92609.81;4947862;28;20047;-90
2021/12/07 07:13:01;;;;;;;239.43;133.30;;;;;;;15.89;38.02;92613.28;4916271;28;20055;-94
2021/12/07 07:15:27;;;;;;;161.95;76.55;;;;;;;15.97;37.65;92618.91;4924493;28;20103;-90
2021/12/07 07:17:52;;;;;;;135.73;67.63;;;;;;;15.86;37.71;92625.22;4929303;28;20560;-90
2021/12/07 07:20:18;;;;;;;158.70;70.13;;;;;;;15.67;36.59;92625.19;4938561;28;20035;-93
2021/12/07 07:26:35;;;;;;;142.73;68.43;;;;;;;15.65;37.05;92633.13;5420262;23;20054;-93
2021/12/07 07:39:26;;;;;;;152.02;71.05;;;;;;;15.73;38.27;92644.94;4115479;23;20061;-93
2021/12/07 07:41:52;;;;;;;152.48;73.03;;;;;;;15.72;38.91;92650.91;4996244;28;20053;-91
2021/12/07 07:45:03;;;;;;;129.15;53.15;;;;;;;15.55;36.06;92642.88;4959263;28;20046;-91
2021/12/07 07:47:30;;;;;;;129.07;46.08;;;;;;;15.52;35.63;92654.03;4912329;29;20039;-94
2021/12/07 07:49:56;;;;;;;146.98;50.25;;;;;;;15.52;35.50;92649.34;4912223;29;20075;-93
2021/12/07 07:52:23;;;;;;;164.73;57.50;;;;;;;15.44;35.47;92659.31;4913299;29;20523;-92
2021/12/07 07:54:48;;;;;;;219.07;68.85;;;;;;;15.47;35.60;92657.56;4915784;29;20044;-92
2021/12/07 07:57:14;;;;;;;240.90;84.78;;;;;;;15.43;36.04;92653.13;4918054;29;20058;-92
2021/12/07 07:59:40;;;;;;;259.75;104.40;;;;;;;15.47;36.70;92658.28;4938713;29;20050;-95
2021/12/07 08:02:06;;;;;;;295.63;141.70;;;;;;;15.56;36.91;92660.72;4924689;29;20064;-94
2021/12/07 08:04:51;;;;;;;267.27;136.70;;;;;;;15.58;37.23;92666.41;4933746;29;20175;-94
2021/12/07 08:07:36;;;;;;;247.27;125.13;;;;;;;15.56;37.22;92658.00;4984238;23;20061;-95
2021/12/07 08:10:04;;;;;;;216.52;105.18;;;;;;;15.62;37.20;92666.84;4937074;28;20027;-90
2021/12/07 08:12:44;;;;;;;237.88;120.63;;;;;;;15.63;37.07;92668.31;4946258;28;20049;-93
2021/12/07 08:15:12;;;;;;;296.65;129.88;;;;;;;15.63;37.11;92657.41;4939801;28;20133;-95
2021/12/07 08:17:37;;;;;;;250.02;118.78;;;;;;;15.62;37.35;92669.56;4990437;28;20120;-91
2021/12/07 08:20:03;;;;;;;257.45;119.78;;;;;;;15.68;37.28;92666.78;4984610;28;20418;-91
2021/12/07 08:22:33;;;;;;;267.55;119.10;;;;;;;15.61;37.03;92672.78;4995212;28;20060;-93
2021/12/07 08:24:59;;;;;;;259.10;121.88;;;;;;;15.65;37.41;92670.53;4977260;28;20049;-92
2021/12/07 08:27:25;;;;;;;234.05;112.95;;;;;;;15.65;37.50;92667.81;4966777;28;20043;-89
2021/12/07 08:29:50;;;;;;;263.17;118.70;;;;;;;15.69;37.38;92668.25;4980030;28;20406;-90
2021/12/07 08:32:18;;;;;;;263.90;116.15;;;;;;;15.68;36.98;92666.78;4999045;28;20529;-92
2021/12/07 08:34:45;;;;;;;234.48;106.10;;;;;;;15.67;37.23;92668.03;4960997;28;20067;-91
2021/12/07 08:37:11;;;;;;;222.90;99.93;;;;;;;15.65;37.37;92671.28;4957672;28;20111;-94
2021/12/07 08:39:37;;;;;;;237.80;104.53;;;;;;;15.73;37.53;92671.44;4977239;28;20026;-94
2021/12/07 08:42:03;;;;;;;226.48;98.03;;;;;;;15.71;37.29;92674.69;4945325;28;20047;-88
2021/12/07 08:44:29;;;;;;;226.45;103.05;;;;;;;15.72;37.21;92672.69;4990016;28;20042;-89
2021/12/07 08:46:58;;;;;;;182.80;90.05;;;;;;;15.75;37.46;92672.41;4970075;28;20229;-94
2021/12/07 08:49:25;;;;;;;224.05;98.75;;;;;;;15.72;37.21;92672.69;4953505;28;20080;-92
2021/12/07 08:51:51;;;;;;;223.88;103.20;;;;;;;15.73;37.47;92666.00;4965110;28;20038;-91
2021/12/07 08:54:35;;;;;;;236.20;104.90;;;;;;;15.72;37.60;92672.69;4957445;28;20057;-89
2021/12/07 08:59:48;;;;;;;237.68;108.60;;;;;;;15.75;37.47;92679.84;4982595;28;20107;-92
2021/12/07 09:02:18;;;;;;;227.38;110.20;;;;;;;15.77;37.49;92685.53;4981466;28;20038;-89
2021/12/07 09:04:44;;;;;;;241.35;108.72;;;;;;;15.83;37.39;92678.03;4953442;28;20043;-92
2021/12/07 09:07:09;;;;;;;209.55;95.55;;;;;;;15.84;37.74;92687.66;4969925;28;20046;-93
2021/12/07 09:09:36;;;;;;;203.98;98.47;;;;;;;15.86;37.42;92690.63;4978748;28;20041;-90
2021/12/07 09:12:03;;;;;;;182.35;88.78;;;;;;;15.83;37.45;92696.34;5009745;28;20038;-91
2021/12/07 09:14:30;;;;;;;214.88;100.82;;;;;;;15.81;37.59;92699.59;4979237;28;20611;-89
2021/12/07 09:16:55;;;;;;;357.05;121.80;;;;;;;15.80;37.81;92697.41;4978302;28;20666;-90
2021/12/07 09:19:22;;;;;;;233.75;98.28;;;;;;;15.80;37.49;92698.13;4963192;28;20253;-90
2021/12/07 09:21:48;;;;;;;212.27;98.43;;;;;;;15.80;37.94;92700.88;4992783;23;20830;-90
2021/12/07 09:24:13;;;;;;;212.63;94.90;;;;;;;15.82;37.86;92698.34;4985919;23;20043;-90
2021/12/07 09:26:38;;;;;;;198.50;92.88;;;;;;;15.84;37.77;92706.75;4947118;28;20046;-90
2021/12/07 09:29:04;;;;;;;242.20;107.55;;;;;;;15.89;37.78;92700.50;4965192;28;20027;-89
2021/12/07 09:31:29;;;;;;;171.75;82.55;;;;;;;15.91;37.40;92705.44;4956724;28;20138;-91
2021/12/07 09:33:55;;;;;;;182.18;91.43;;;;;;;15.80;37.60;92711.03;4980724;28;20031;-87
2021/12/07 09:36:20;;;;;;;198.60;92.43;;;;;;;15.88;37.82;92701.03;4961021;28;20051;-89
2021/12/07 09:38:46;;;;;;;181.73;87.18;;;;;;;15.84;38.22;92700.56;4962090;28;20046;-90
2021/12/07 09:41:13;;;;;;;183.52;92.25;;;;;;;15.86;37.74;92706.97;4980495;28;20263;-92
2021/12/07 09:43:39;;;;;;;186.68;96.00;;;;;;;15.84;37.98;92708.72;4974138;28;20053;-89
2021/12/07 09:46:06;;;;;;;190.45;96.68;;;;;;;15.82;38.06;92714.69;4972614;28;20040;-89
2021/12/07 09:48:31;;;;;;;181.00;92.30;;;;;;;15.83;38.05;92712.72;4942581;28;20062;-91
2021/12/07 09:50:57;;;;;;;190.25;92.65;;;;;;;15.82;37.82;92713.94;4973065;28;20039;-93
2021/12/07 09:53:24;;;;;;;191.52;93.20;;;;;;;15.85;37.92;92718.38;4956739;28;20500;-92
2021/12/07 09:55:50;;;;;;;206.18;98.22;;;;;;;15.84;38.05;92720.38;4959843;28;20058;-92
2021/12/07 09:58:16;;;;;;;176.77;89.07;;;;;;;15.95;38.07;92709.38;4972046;28;20043;-89
2021/12/07 10:00:41;;;;;;;188.20;98.25;;;;;;;15.91;37.73;92716.34;4973406;28;20506;-89
2021/12/07 10:03:06;;;;;;;204.27;101.80;;;;;;;15.92;38.18;92715.09;4967019;28;20082;-88
2021/12/07 10:05:35;;;;;;;239.57;119.05;;;;;;;15.87;38.09;92718.63;4971623;28;20047;-89
2021/12/07 10:08:00;;;;;;;203.20;106.25;;;;;;;15.91;38.15;92719.81;4971370;28;20043;-87
2021/12/07 10:10:36;;;;;;;204.40;106.47;;;;;;;15.89;38.13;92710.66;4954792;28;20046;-87
2021/12/07 10:13:02;;;;;;;197.27;103.97;;;;;;;16.02;38.13;92716.25;4967985;28;20048;-91
2021/12/07 10:15:27;;;;;;;189.85;97.75;;;;;;;15.97;38.05;92715.06;4969082;28;20042;-89
2021/12/07 10:18:12;;;;;;;184.75;99.57;;;;;;;15.91;38.25;92710.91;4976000;28;20038;-92
2021/12/07 10:20:43;;;;;;;218.38;104.00;;;;;;;15.88;37.81;92712.66;4958017;28;20464;-92
2021/12/07 10:23:14;;;;;;;194.98;90.22;;;;;;;15.87;37.38;92710.44;4970324;28;20051;-90
2021/12/07 10:25:40;;;;;;;207.88;100.60;;;;;;;15.77;37.21;92716.25;4973184;28;20047;-93
2021/12/07 10:28:24;;;;;;;220.32;96.32;;;;;;;15.79;37.53;92712.28;4960852;28;20138;-90
2021/12/07 10:30:50;;;;;;;216.52;94.80;;;;;;;15.82;37.49;92709.25;4940718;28;20031;-89
2021/12/07 10:33:35;;;;;;;223.63;98.38;;;;;;;15.81;38.00;92707.03;4947106;28;20142;-90
2021/12/07 10:36:07;;;;;;;208.68;87.78;;;;;;;15.81;38.23;92705.03;4974350;28;20041;-90
2021/12/07 10:38:32;;;;;;;186.32;93.60;;;;;;;15.88;38.32;92707.22;4970258;28;20430;-92
2021/12/07 10:41:03;;;;;;;195.45;94.07;;;;;;;15.85;38.02;92710.22;4953719;28;20102;-89
2021/12/07 10:43:47;;;;;;;196.13;91.32;;;;;;;15.83;38.86;92709.97;4955942;28;20062;-90
2021/12/07 10:46:33;;;;;;;189.88;90.32;;;;;;;15.79;38.65;92702.13;4983910;28;20130;-89
2021/12/07 10:49:19;;;;;;;170.98;83.95;;;;;;;15.80;38.72;92689.97;4971337;28;20043;-88
2021/12/07 10:52:01;;;;;;;211.52;93.95;;;;;;;15.83;38.28;92699.09;4966986;28;20042;-91
2021/12/07 10:54:29;;;;;;;224.00;96.30;;;;;;;15.84;38.17;92701.28;4971016;28;20058;-92
2021/12/07 10:56:55;;;;;;;211.00;92.53;;;;;;;15.90;38.22;92699.25;4953797;28;20065;-91
2021/12/07 10:59:20;;;;;;;213.80;92.40;;;;;;;15.92;38.75;92704.94;4943211;28;20605;-92
2021/12/07 11:01:48;;;;;;;215.90;88.07;;;;;;;15.97;38.68;92714.31;4959011;28;20035;-93
2021/12/07 11:04:21;;;;;;;225.90;90.63;;;;;;;16.04;39.48;92706.28;4940590;28;20055;-91
2021/12/07 11:07:03;;;;;;;201.27;87.80;;;;;;;15.98;39.38;92713.06;4958205;28;20402;-89
2021/12/07 11:09:29;;;;;;;204.95;92.57;;;;;;;16.06;38.94;92711.97;4990265;28;20656;-91
2021/12/07 11:12:07;;;;;;;193.20;86.40;;;;;;;16.01;38.76;92710.06;4973447;28;20047;-90
2021/12/07 11:14:52;;;;;;;173.77;84.93;;;;;;;15.97;38.41;92717.03;4971099;28;20070;-91
2021/12/07 11:17:21;;;;;;;187.32;86.15;;;;;;;15.97;38.33;92712.31;4958876;28;20046;-91
2021/12/07 11:19:47;;;;;;;209.25;90.78;;;;;;;16.08;39.17;92706.75;4962837;28;20038;-94
2021/12/07 11:22:14;;;;;;;227.05;97.68;;;;;;;16.15;39.66;92707.44;4951988;28;20043;-92
2021/12/07 11:24:44;;;;;;;206.13;93.45;;;;;;;16.09;39.23;92707.47;4937379;28;20039;-92
2021/12/07 11:30:11;;;;;;;194.75;91.35;;;;;;;16.10;39.06;92698.06;4976460;28;20509;-90
2021/12/07 11:32:41;;;;;;;162.00;81.97;;;;;;;16.13;38.67;92707.94;4967614;28;20042;-91
2021/12/07 11:35:13;;;;;;;166.50;83.50;;;;;;;16.05;38.48;92704.31;4996580;23;20084;-92
2021/12/07 11:37:38;;;;;;;175.07;85.03;;;;;;;16.11;39.56;92713.91;4980436;28;20515;-89
2021/12/07 11:40:06;;;;;;;151.75;78.82;;;;;;;16.19;39.26;92714.06;4989719;28;20033;-88
2021/12/07 11:42:36;;;;;;;176.73;79.60;;;;;;;16.07;38.69;92710.72;4991358;28;20125;-90
2021/12/07 11:45:07;;;;;;;111.40;58.67;;;;;;;15.98;37.46;92707.63;4994961;28;20031;-91
2021/12/07 11:47:39;;;;;;;102.47;49.78;;;;;;;16.02;37.26;92706.06;4995460;28;20109;-90
2021/12/07 11:50:14;;;;;;;116.15;52.22;;;;;;;15.97;37.24;92704.16;5013107;28;20037;-90
2021/12/07 11:52:40;;;;;;;124.80;58.47;;;;;;;15.95;38.44;92705.91;4990536;28;20034;-89
2021/12/07 11:55:06;;;;;;;112.20;52.80;;;;;;;15.94;38.91;92702.44;4982474;28;20045;-90
2021/12/07 11:57:31;;;;;;;114.82;55.50;;;;;;;15.84;38.59;92712.19;4993766;28;20049;-89
2021/12/07 11:59:57;;;;;;;108.65;52.80;;;;;;;15.89;38.63;92705.97;4990031;28;20042;-87
2021/12/07 12:02:24;;;;;;;126.22;56.63;;;;;;;15.85;38.90;92704.75;5009554;28;20033;-86
2021/12/07 12:04:49;;;;;;;117.78;58.97;;;;;;;15.86;38.78;92701.53;4992468;28;20045;-89
2021/12/07 12:07:14;;;;;;;103.35;47.75;;;;;;;15.85;38.14;92705.50;4975925;28;20038;-87
2021/12/07 12:09:51;;;;;;;115.28;53.15;;;;;;;15.80;38.48;92697.41;5009057;28;20088;-88
2021/12/07 12:12:23;;;;;;;139.88;48.65;;;;;;;15.75;38.12;92699.66;4995398;28;20049;-87
2021/12/07 12:15:27;;;;;;;121.05;54.20;;;;;;;15.88;38.42;92695.56;4993534;28;20400;-88
2021/12/07 12:18:19;;;;;;;125.80;49.10;;;;;;;15.93;38.33;92700.22;5005102;28;20043;-88
2021/12/07 12:20:55;;;;;;;133.90;54.97;;;;;;;15.83;38.62;92702.53;5021801;28;20044;-89
2021/12/07 12:23:55;;;;;;;157.50;66.80;;;;;;;15.88;38.55;92690.84;5009773;28;20551;-88
2021/12/07 12:26:23;;;;;;;213.73;92.13;;;;;;;15.84;39.08;92690.41;4997413;28;20093;-90
2021/12/07 12:28:52;;;;;;;231.80;89.45;;;;;;;15.89;38.76;92692.34;4979724;28;20065;-87
2021/12/07 12:31:18;;;;;;;216.85;91.20;;;;;;;15.88;39.07;92692.84;4991173;28;20037;-87
2021/12/07 12:33:54;;;;;;;239.45;97.80;;;;;;;15.96;38.99;92696.47;4993070;28;20084;-86
2021/12/07 12:36:22;;;;;;;265.60;106.38;;;;;;;15.91;38.93;92698.00;4988498;28;20045;-89
2021/12/07 12:38:59;;;;;;;269.23;109.82;;;;;;;15.92;38.97;92685.13;5008211;28;20042;-86
2021/12/07 12:41:24;;;;;;;274.77;111.15;;;;;;;15.91;38.82;92689.09;4991267;28;20042;-91
2021/12/07 12:43:58;;;;;;;251.15;102.38;;;;;;;15.90;38.81;92693.81;4991915;28;20037;-87
2021/12/07 12:46:28;;;;;;;260.95;114.43;;;;;;;15.91;38.95;92697.28;4992825;28;20259;-86
2021/12/07 12:48:56;;;;;;;245.27;107.72;;;;;;;15.89;39.25;92700.50;4979230;28;20045;-91
2021/12/07 12:51:23;;;;;;;251.65;107.57;;;;;;;15.96;38.91;92699.94;4975883;28;24699;-89
2021/12/07 12:53:50;;;;;;;247.02;114.60;;;;;;;15.91;39.11;92700.75;4975975;28;20050;-88
2021/12/07 12:56:16;;;;;;;258.38;121.30;;;;;;;15.92;39.19;92696.75;4976143;28;20404;-90
2021/12/07 12:58:47;;;;;;;221.88;106.88;;;;;;;15.90;39.26;92709.44;5008706;28;20054;-89
2021/12/07 13:01:37;;;;;;;236.55;122.38;;;;;;;15.92;39.07;92696.75;4992116;28;20286;-88
2021/12/07 13:04:17;;;;;;;159.38;68.00;;;;;;;15.75;36.32;92702.38;4995484;28;20038;-88
2021/12/07 13:06:46;;;;;;;154.75;65.30;;;;;;;15.67;36.00;92698.00;4997562;28;20042;-86
2021/12/07 13:09:18;;;;;;;152.65;70.55;;;;;;;15.65;35.93;92705.94;4997660;28;20774;-88